sensor_id;sensor_type;location;lat;lon;timestamp;P1;durP1;ratioP1;P2;durP2;ratioP2
12896;SDS011;6516;35.028;32.372;2023-06-01T00:02:18;15.38;;;8.02;;
12896;SDS011;6516;35.028;32.372;2023-06-01T00:04:46;15.45;;;8.50;;
12896;SDS011;6516;35.028;32.372;2023-06-01T00:07:15;14.90;;;8.32;;
12896;SDS011;6516;35.028;32.372;2023-06-01T00:09:43;13.40;;;7.70;;
12896;SDS011;6516;35.028;32.372;2023-06-01T00:12:11;12.98;;;7.95;;
12896;SDS011;6516;35.028;32.372;2023-06-01T00:14:41;14.20;;;8.05;;
12896;SDS011;6516;35.028;32.372;2023-06-01T00:17:09;13.38;;;7.82;;
12896;SDS011;6516;35.028;32.372;2023-06-01T00:19:37;13.10;;;7.72;;
12896;SDS011;6516;35.028;32.372;2023-06-01T00:22:05;13.30;;;7.87;;
12896;SDS011;6516;35.028;32.372;2023-06-01T00:24:33;14.13;;;8.15;;
12896;SDS011;6516;35.028;32.372;2023-06-01T00:27:01;11.95;;;7.40;;
12896;SDS011;6516;35.028;32.372;2023-06-01T00:29:30;13.90;;;8.13;;
12896;SDS011;6516;35.028;32.372;2023-06-01T00:31:59;12.40;;;7.47;;
12896;SDS011;6516;35.028;32.372;2023-06-01T00:34:27;14.73;;;7.60;;
12896;SDS011;6516;35.028;32.372;2023-06-01T00:36:55;15.73;;;8.57;;
12896;SDS011;6516;35.028;32.372;2023-06-01T00:39:23;13.80;;;8.05;;
12896;SDS011;6516;35.028;32.372;2023-06-01T00:41:50;11.45;;;7.50;;
12896;SDS011;6516;35.028;32.372;2023-06-01T00:44:18;14.38;;;7.90;;
12896;SDS011;6516;35.028;32.372;2023-06-01T00:46:46;13.73;;;7.47;;
12896;SDS011;6516;35.028;32.372;2023-06-01T00:49:15;13.57;;;7.65;;
12896;SDS011;6516;35.028;32.372;2023-06-01T00:51:43;13.98;;;7.88;;
12896;SDS011;6516;35.028;32.372;2023-06-01T00:54:11;12.88;;;7.95;;
12896;SDS011;6516;35.028;32.372;2023-06-01T00:56:39;13.25;;;7.82;;
12896;SDS011;6516;35.028;32.372;2023-06-01T00:59:06;12.70;;;7.93;;
12896;SDS011;6516;35.028;32.372;2023-06-01T01:01:34;15.23;;;8.52;;
12896;SDS011;6516;35.028;32.372;2023-06-01T01:04:02;12.30;;;8.05;;
12896;SDS011;6516;35.028;32.372;2023-06-01T01:06:35;12.13;;;7.63;;
12896;SDS011;6516;35.028;32.372;2023-06-01T01:09:17;13.85;;;7.38;;
12896;SDS011;6516;35.028;32.372;2023-06-01T01:11:56;13.50;;;7.40;;
12896;SDS011;6516;35.028;32.372;2023-06-01T01:14:29;14.13;;;7.80;;
12896;SDS011;6516;35.028;32.372;2023-06-01T01:17:05;12.52;;;7.68;;
12896;SDS011;6516;35.028;32.372;2023-06-01T01:19:51;12.65;;;7.57;;
12896;SDS011;6516;35.028;32.372;2023-06-01T01:22:34;13.65;;;7.75;;
12896;SDS011;6516;35.028;32.372;2023-06-01T01:25:25;11.80;;;7.23;;
12896;SDS011;6516;35.028;32.372;2023-06-01T01:28:27;14.93;;;7.65;;
12896;SDS011;6516;35.028;32.372;2023-06-01T01:31:00;14.40;;;7.32;;
12896;SDS011;6516;35.028;32.372;2023-06-01T01:33:31;12.68;;;7.93;;
12896;SDS011;6516;35.028;32.372;2023-06-01T01:36:00;15.40;;;8.80;;
12896;SDS011;6516;35.028;32.372;2023-06-01T01:38:28;13.20;;;8.60;;
12896;SDS011;6516;35.028;32.372;2023-06-01T01:40:56;13.40;;;8.30;;
12896;SDS011;6516;35.028;32.372;2023-06-01T01:43:24;15.32;;;8.98;;
12896;SDS011;6516;35.028;32.372;2023-06-01T01:45:54;14.60;;;8.73;;
12896;SDS011;6516;35.028;32.372;2023-06-01T01:48:30;14.30;;;8.60;;
12896;SDS011;6516;35.028;32.372;2023-06-01T01:51:06;16.07;;;9.07;;
12896;SDS011;6516;35.028;32.372;2023-06-01T01:53:40;15.00;;;8.90;;
12896;SDS011;6516;35.028;32.372;2023-06-01T01:56:10;14.13;;;9.20;;
12896;SDS011;6516;35.028;32.372;2023-06-01T01:58:40;13.40;;;9.10;;
12896;SDS011;6516;35.028;32.372;2023-06-01T02:01:10;14.93;;;9.48;;
12896;SDS011;6516;35.028;32.372;2023-06-01T02:03:39;15.77;;;9.87;;
12896;SDS011;6516;35.028;32.372;2023-06-01T02:06:07;16.35;;;9.90;;
12896;SDS011;6516;35.028;32.372;2023-06-01T02:08:35;14.90;;;9.40;;
12896;SDS011;6516;35.028;32.372;2023-06-01T02:11:03;15.02;;;9.73;;
12896;SDS011;6516;35.028;32.372;2023-06-01T02:13:31;17.55;;;10.05;;
12896;SDS011;6516;35.028;32.372;2023-06-01T02:15:59;17.43;;;9.40;;
12896;SDS011;6516;35.028;32.372;2023-06-01T02:18:28;17.65;;;9.70;;
12896;SDS011;6516;35.028;32.372;2023-06-01T02:20:57;16.13;;;10.23;;
12896;SDS011;6516;35.028;32.372;2023-06-01T02:23:25;15.93;;;10.02;;
12896;SDS011;6516;35.028;32.372;2023-06-01T02:25:52;15.77;;;10.30;;
12896;SDS011;6516;35.028;32.372;2023-06-01T02:28:20;17.37;;;10.13;;
12896;SDS011;6516;35.028;32.372;2023-06-01T02:30:48;16.25;;;10.00;;
12896;SDS011;6516;35.028;32.372;2023-06-01T02:33:16;19.15;;;10.07;;
12896;SDS011;6516;35.028;32.372;2023-06-01T02:35:45;14.07;;;9.55;;
12896;SDS011;6516;35.028;32.372;2023-06-01T02:38:13;15.40;;;9.65;;
12896;SDS011;6516;35.028;32.372;2023-06-01T02:40:41;15.23;;;9.27;;
12896;SDS011;6516;35.028;32.372;2023-06-01T02:43:08;16.63;;;9.75;;
12896;SDS011;6516;35.028;32.372;2023-06-01T02:45:36;14.63;;;9.52;;
12896;SDS011;6516;35.028;32.372;2023-06-01T02:48:05;13.55;;;8.93;;
12896;SDS011;6516;35.028;32.372;2023-06-01T02:50:32;14.57;;;8.98;;
12896;SDS011;6516;35.028;32.372;2023-06-01T02:53:02;14.57;;;9.10;;
12896;SDS011;6516;35.028;32.372;2023-06-01T02:55:30;15.05;;;9.13;;
12896;SDS011;6516;35.028;32.372;2023-06-01T02:57:58;14.23;;;9.18;;
12896;SDS011;6516;35.028;32.372;2023-06-01T03:00:26;15.63;;;9.60;;
12896;SDS011;6516;35.028;32.372;2023-06-01T03:02:53;16.08;;;8.85;;
12896;SDS011;6516;35.028;32.372;2023-06-01T03:05:21;16.77;;;8.60;;
12896;SDS011;6516;35.028;32.372;2023-06-01T03:07:49;14.15;;;8.07;;
12896;SDS011;6516;35.028;32.372;2023-06-01T03:10:18;16.50;;;8.88;;
12896;SDS011;6516;35.028;32.372;2023-06-01T03:12:46;16.17;;;8.88;;
12896;SDS011;6516;35.028;32.372;2023-06-01T03:15:15;16.40;;;9.00;;
12896;SDS011;6516;35.028;32.372;2023-06-01T03:17:43;13.23;;;8.40;;
12896;SDS011;6516;35.028;32.372;2023-06-01T03:20:11;13.10;;;8.80;;
12896;SDS011;6516;35.028;32.372;2023-06-01T03:22:41;15.57;;;9.07;;
12896;SDS011;6516;35.028;32.372;2023-06-01T03:25:09;14.57;;;8.80;;
12896;SDS011;6516;35.028;32.372;2023-06-01T03:27:39;13.52;;;8.02;;
12896;SDS011;6516;35.028;32.372;2023-06-01T03:30:07;14.77;;;8.67;;
12896;SDS011;6516;35.028;32.372;2023-06-01T03:32:36;14.50;;;8.48;;
12896;SDS011;6516;35.028;32.372;2023-06-01T03:35:05;15.60;;;9.00;;
12896;SDS011;6516;35.028;32.372;2023-06-01T03:37:35;16.00;;;8.93;;
12896;SDS011;6516;35.028;32.372;2023-06-01T03:40:04;14.98;;;8.68;;
12896;SDS011;6516;35.028;32.372;2023-06-01T03:42:35;15.67;;;8.83;;
12896;SDS011;6516;35.028;32.372;2023-06-01T03:45:05;17.75;;;8.50;;
12896;SDS011;6516;35.028;32.372;2023-06-01T03:47:34;12.35;;;8.32;;
12896;SDS011;6516;35.028;32.372;2023-06-01T03:50:03;14.07;;;8.13;;
12896;SDS011;6516;35.028;32.372;2023-06-01T03:52:33;13.13;;;8.70;;
12896;SDS011;6516;35.028;32.372;2023-06-01T03:55:02;15.07;;;8.00;;
12896;SDS011;6516;35.028;32.372;2023-06-01T03:57:33;13.18;;;7.97;;
12896;SDS011;6516;35.028;32.372;2023-06-01T04:00:01;13.27;;;7.95;;
12896;SDS011;6516;35.028;32.372;2023-06-01T04:02:45;12.30;;;7.65;;
12896;SDS011;6516;35.028;32.372;2023-06-01T04:05:17;14.50;;;8.13;;
12896;SDS011;6516;35.028;32.372;2023-06-01T04:07:46;14.90;;;7.77;;
12896;SDS011;6516;35.028;32.372;2023-06-01T04:10:15;14.68;;;7.40;;
12896;SDS011;6516;35.028;32.372;2023-06-01T04:12:43;12.50;;;7.60;;
12896;SDS011;6516;35.028;32.372;2023-06-01T04:15:15;13.20;;;7.28;;
12896;SDS011;6516;35.028;32.372;2023-06-01T04:17:46;13.60;;;7.75;;
12896;SDS011;6516;35.028;32.372;2023-06-01T04:20:14;12.57;;;7.27;;
12896;SDS011;6516;35.028;32.372;2023-06-01T04:22:43;12.00;;;6.93;;
12896;SDS011;6516;35.028;32.372;2023-06-01T04:25:13;14.32;;;7.10;;
12896;SDS011;6516;35.028;32.372;2023-06-01T04:27:44;12.05;;;7.18;;
12896;SDS011;6516;35.028;32.372;2023-06-01T04:30:14;12.20;;;6.70;;
12896;SDS011;6516;35.028;32.372;2023-06-01T04:32:42;11.03;;;6.43;;
12896;SDS011;6516;35.028;32.372;2023-06-01T04:35:14;10.63;;;5.82;;
12896;SDS011;6516;35.028;32.372;2023-06-01T04:37:42;9.55;;;5.75;;
12896;SDS011;6516;35.028;32.372;2023-06-01T04:40:10;10.73;;;5.90;;
12896;SDS011;6516;35.028;32.372;2023-06-01T04:42:40;13.23;;;5.90;;
12896;SDS011;6516;35.028;32.372;2023-06-01T04:45:11;12.87;;;6.17;;
12896;SDS011;6516;35.028;32.372;2023-06-01T04:47:41;10.57;;;5.45;;
12896;SDS011;6516;35.028;32.372;2023-06-01T04:50:11;10.55;;;5.75;;
12896;SDS011;6516;35.028;32.372;2023-06-01T04:52:44;11.75;;;5.40;;
12896;SDS011;6516;35.028;32.372;2023-06-01T04:55:13;8.90;;;5.45;;
12896;SDS011;6516;35.028;32.372;2023-06-01T04:57:42;9.33;;;5.60;;
12896;SDS011;6516;35.028;32.372;2023-06-01T05:00:10;10.52;;;5.68;;
12896;SDS011;6516;35.028;32.372;2023-06-01T05:02:43;10.93;;;5.78;;
12896;SDS011;6516;35.028;32.372;2023-06-01T05:05:14;12.07;;;5.78;;
12896;SDS011;6516;35.028;32.372;2023-06-01T05:07:43;9.88;;;5.28;;
12896;SDS011;6516;35.028;32.372;2023-06-01T05:10:12;11.27;;;5.67;;
12896;SDS011;6516;35.028;32.372;2023-06-01T05:12:40;10.88;;;6.00;;
12896;SDS011;6516;35.028;32.372;2023-06-01T05:15:09;12.07;;;6.40;;
12896;SDS011;6516;35.028;32.372;2023-06-01T05:17:38;12.35;;;6.28;;
12896;SDS011;6516;35.028;32.372;2023-06-01T05:20:07;9.77;;;6.35;;
12896;SDS011;6516;35.028;32.372;2023-06-01T05:22:38;12.67;;;6.10;;
12896;SDS011;6516;35.028;32.372;2023-06-01T05:25:06;10.32;;;6.03;;
12896;SDS011;6516;35.028;32.372;2023-06-01T05:27:36;11.57;;;6.28;;
12896;SDS011;6516;35.028;32.372;2023-06-01T05:30:05;12.98;;;6.03;;
12896;SDS011;6516;35.028;32.372;2023-06-01T05:32:34;12.23;;;5.90;;
12896;SDS011;6516;35.028;32.372;2023-06-01T05:35:01;10.43;;;5.90;;
12896;SDS011;6516;35.028;32.372;2023-06-01T05:37:30;13.52;;;5.72;;
12896;SDS011;6516;35.028;32.372;2023-06-01T05:39:59;11.32;;;6.00;;
12896;SDS011;6516;35.028;32.372;2023-06-01T05:42:28;11.02;;;5.75;;
12896;SDS011;6516;35.028;32.372;2023-06-01T05:44:56;12.60;;;6.45;;
12896;SDS011;6516;35.028;32.372;2023-06-01T05:47:24;11.67;;;6.23;;
12896;SDS011;6516;35.028;32.372;2023-06-01T05:49:52;11.35;;;6.35;;
12896;SDS011;6516;35.028;32.372;2023-06-01T05:52:20;10.45;;;5.88;;
12896;SDS011;6516;35.028;32.372;2023-06-01T05:54:48;15.60;;;6.15;;
12896;SDS011;6516;35.028;32.372;2023-06-01T05:57:20;12.57;;;6.40;;
12896;SDS011;6516;35.028;32.372;2023-06-01T05:59:48;10.40;;;5.77;;
12896;SDS011;6516;35.028;32.372;2023-06-01T06:02:15;12.75;;;5.90;;
12896;SDS011;6516;35.028;32.372;2023-06-01T06:04:43;9.75;;;5.93;;
12896;SDS011;6516;35.028;32.372;2023-06-01T06:07:11;11.13;;;6.05;;
12896;SDS011;6516;35.028;32.372;2023-06-01T06:09:39;11.18;;;6.38;;
12896;SDS011;6516;35.028;32.372;2023-06-01T06:12:07;10.50;;;5.70;;
12896;SDS011;6516;35.028;32.372;2023-06-01T06:14:36;12.57;;;6.18;;
12896;SDS011;6516;35.028;32.372;2023-06-01T06:17:04;12.05;;;6.05;;
12896;SDS011;6516;35.028;32.372;2023-06-01T06:19:32;10.25;;;5.43;;
12896;SDS011;6516;35.028;32.372;2023-06-01T06:22:00;9.05;;;5.60;;
12896;SDS011;6516;35.028;32.372;2023-06-01T06:24:28;11.37;;;5.70;;
12896;SDS011;6516;35.028;32.372;2023-06-01T06:26:56;10.23;;;5.70;;
12896;SDS011;6516;35.028;32.372;2023-06-01T06:29:23;10.15;;;5.80;;
12896;SDS011;6516;35.028;32.372;2023-06-01T06:31:53;11.00;;;5.85;;
12896;SDS011;6516;35.028;32.372;2023-06-01T06:34:20;9.75;;;5.57;;
12896;SDS011;6516;35.028;32.372;2023-06-01T06:36:48;9.33;;;4.93;;
12896;SDS011;6516;35.028;32.372;2023-06-01T06:39:17;11.15;;;5.72;;
12896;SDS011;6516;35.028;32.372;2023-06-01T06:41:46;11.93;;;5.82;;
12896;SDS011;6516;35.028;32.372;2023-06-01T06:44:14;10.30;;;5.82;;
12896;SDS011;6516;35.028;32.372;2023-06-01T06:46:42;10.82;;;5.55;;
12896;SDS011;6516;35.028;32.372;2023-06-01T06:49:11;11.23;;;5.77;;
12896;SDS011;6516;35.028;32.372;2023-06-01T06:51:39;11.85;;;5.97;;
12896;SDS011;6516;35.028;32.372;2023-06-01T06:54:06;9.43;;;5.65;;
12896;SDS011;6516;35.028;32.372;2023-06-01T06:56:34;9.80;;;5.88;;
12896;SDS011;6516;35.028;32.372;2023-06-01T06:59:02;12.38;;;6.22;;
12896;SDS011;6516;35.028;32.372;2023-06-01T07:01:30;10.67;;;6.37;;
12896;SDS011;6516;35.028;32.372;2023-06-01T07:04:00;12.52;;;6.65;;
12896;SDS011;6516;35.028;32.372;2023-06-01T07:06:29;12.05;;;6.80;;
12896;SDS011;6516;35.028;32.372;2023-06-01T07:08:57;12.70;;;6.85;;
12896;SDS011;6516;35.028;32.372;2023-06-01T07:11:26;11.77;;;6.53;;
12896;SDS011;6516;35.028;32.372;2023-06-01T07:13:54;10.80;;;6.37;;
12896;SDS011;6516;35.028;32.372;2023-06-01T07:16:23;9.98;;;6.38;;
12896;SDS011;6516;35.028;32.372;2023-06-01T07:18:51;12.68;;;7.18;;
12896;SDS011;6516;35.028;32.372;2023-06-01T07:21:19;9.77;;;6.70;;
12896;SDS011;6516;35.028;32.372;2023-06-01T07:23:48;11.27;;;7.07;;
12896;SDS011;6516;35.028;32.372;2023-06-01T07:26:16;11.10;;;6.60;;
12896;SDS011;6516;35.028;32.372;2023-06-01T07:28:43;11.85;;;7.00;;
12896;SDS011;6516;35.028;32.372;2023-06-01T07:31:11;10.32;;;6.57;;
12896;SDS011;6516;35.028;32.372;2023-06-01T07:33:39;11.75;;;6.35;;
12896;SDS011;6516;35.028;32.372;2023-06-01T07:36:07;11.27;;;6.50;;
12896;SDS011;6516;35.028;32.372;2023-06-01T07:38:35;11.13;;;6.50;;
12896;SDS011;6516;35.028;32.372;2023-06-01T07:41:04;11.68;;;6.57;;
12896;SDS011;6516;35.028;32.372;2023-06-01T07:43:32;12.15;;;6.72;;
12896;SDS011;6516;35.028;32.372;2023-06-01T07:46:03;10.88;;;6.18;;
12896;SDS011;6516;35.028;32.372;2023-06-01T07:48:32;11.98;;;6.43;;
12896;SDS011;6516;35.028;32.372;2023-06-01T07:51:02;12.67;;;6.50;;
12896;SDS011;6516;35.028;32.372;2023-06-01T07:53:30;10.65;;;5.80;;
12896;SDS011;6516;35.028;32.372;2023-06-01T07:56:00;11.98;;;6.70;;
12896;SDS011;6516;35.028;32.372;2023-06-01T07:58:29;14.02;;;6.50;;
12896;SDS011;6516;35.028;32.372;2023-06-01T08:00:57;13.65;;;6.00;;
12896;SDS011;6516;35.028;32.372;2023-06-01T08:03:25;12.23;;;6.10;;
12896;SDS011;6516;35.028;32.372;2023-06-01T08:05:53;9.45;;;5.97;;
12896;SDS011;6516;35.028;32.372;2023-06-01T08:08:22;12.98;;;6.30;;
12896;SDS011;6516;35.028;32.372;2023-06-01T08:10:50;10.63;;;5.30;;
12896;SDS011;6516;35.028;32.372;2023-06-01T08:13:18;11.68;;;5.85;;
12896;SDS011;6516;35.028;32.372;2023-06-01T08:15:47;10.07;;;5.47;;
12896;SDS011;6516;35.028;32.372;2023-06-01T08:18:15;9.43;;;5.18;;
12896;SDS011;6516;35.028;32.372;2023-06-01T08:20:44;13.38;;;5.80;;
12896;SDS011;6516;35.028;32.372;2023-06-01T08:23:13;11.43;;;5.70;;
12896;SDS011;6516;35.028;32.372;2023-06-01T08:25:42;11.90;;;6.15;;
12896;SDS011;6516;35.028;32.372;2023-06-01T08:28:11;11.63;;;5.70;;
12896;SDS011;6516;35.028;32.372;2023-06-01T08:30:39;10.55;;;5.93;;
12896;SDS011;6516;35.028;32.372;2023-06-01T08:33:08;10.82;;;6.40;;
12896;SDS011;6516;35.028;32.372;2023-06-01T08:35:36;13.48;;;6.03;;
12896;SDS011;6516;35.028;32.372;2023-06-01T08:38:03;12.25;;;7.20;;
12896;SDS011;6516;35.028;32.372;2023-06-01T08:40:31;10.23;;;6.37;;
12896;SDS011;6516;35.028;32.372;2023-06-01T08:42:59;14.27;;;6.90;;
12896;SDS011;6516;35.028;32.372;2023-06-01T08:45:36;10.70;;;7.05;;
12896;SDS011;6516;35.028;32.372;2023-06-01T08:48:05;11.40;;;6.82;;
12896;SDS011;6516;35.028;32.372;2023-06-01T08:50:41;11.68;;;7.63;;
12896;SDS011;6516;35.028;32.372;2023-06-01T08:53:10;13.43;;;7.40;;
12896;SDS011;6516;35.028;32.372;2023-06-01T08:55:38;12.80;;;7.28;;
12896;SDS011;6516;35.028;32.372;2023-06-01T08:58:06;11.10;;;7.63;;
12896;SDS011;6516;35.028;32.372;2023-06-01T09:00:34;12.68;;;7.70;;
12896;SDS011;6516;35.028;32.372;2023-06-01T09:03:02;11.25;;;6.55;;
12896;SDS011;6516;35.028;32.372;2023-06-01T09:05:32;13.73;;;7.83;;
12896;SDS011;6516;35.028;32.372;2023-06-01T09:08:00;13.02;;;7.53;;
12896;SDS011;6516;35.028;32.372;2023-06-01T09:10:28;13.13;;;8.00;;
12896;SDS011;6516;35.028;32.372;2023-06-01T09:12:56;13.48;;;7.25;;
12896;SDS011;6516;35.028;32.372;2023-06-01T09:15:26;11.68;;;7.38;;
12896;SDS011;6516;35.028;32.372;2023-06-01T09:18:03;13.13;;;7.03;;
12896;SDS011;6516;35.028;32.372;2023-06-01T09:20:35;12.13;;;7.00;;
12896;SDS011;6516;35.028;32.372;2023-06-01T09:23:04;15.25;;;7.45;;
12896;SDS011;6516;35.028;32.372;2023-06-01T09:25:34;9.75;;;6.55;;
12896;SDS011;6516;35.028;32.372;2023-06-01T09:28:02;14.23;;;6.85;;
12896;SDS011;6516;35.028;32.372;2023-06-01T09:30:38;11.97;;;7.13;;
12896;SDS011;6516;35.028;32.372;2023-06-01T09:33:09;14.07;;;7.25;;
12896;SDS011;6516;35.028;32.372;2023-06-01T09:35:42;11.63;;;6.80;;
12896;SDS011;6516;35.028;32.372;2023-06-01T09:38:12;13.60;;;6.65;;
12896;SDS011;6516;35.028;32.372;2023-06-01T09:40:55;11.32;;;7.20;;
12896;SDS011;6516;35.028;32.372;2023-06-01T09:43:24;11.47;;;6.47;;
12896;SDS011;6516;35.028;32.372;2023-06-01T09:46:05;11.68;;;7.00;;
12896;SDS011;6516;35.028;32.372;2023-06-01T09:48:34;11.50;;;6.78;;
12896;SDS011;6516;35.028;32.372;2023-06-01T09:51:04;13.43;;;6.82;;
12896;SDS011;6516;35.028;32.372;2023-06-01T09:53:39;11.93;;;6.63;;
12896;SDS011;6516;35.028;32.372;2023-06-01T09:56:07;11.50;;;6.53;;
12896;SDS011;6516;35.028;32.372;2023-06-01T09:58:35;12.20;;;6.80;;
12896;SDS011;6516;35.028;32.372;2023-06-01T10:01:06;12.65;;;6.43;;
12896;SDS011;6516;35.028;32.372;2023-06-01T10:03:34;11.27;;;6.28;;
12896;SDS011;6516;35.028;32.372;2023-06-01T10:06:10;11.30;;;6.60;;
12896;SDS011;6516;35.028;32.372;2023-06-01T10:08:38;9.80;;;6.07;;
12896;SDS011;6516;35.028;32.372;2023-06-01T10:11:07;9.07;;;5.93;;
12896;SDS011;6516;35.028;32.372;2023-06-01T10:13:35;10.55;;;6.13;;
12896;SDS011;6516;35.028;32.372;2023-06-01T10:16:03;11.02;;;6.60;;
12896;SDS011;6516;35.028;32.372;2023-06-01T10:18:32;11.57;;;6.20;;
12896;SDS011;6516;35.028;32.372;2023-06-01T10:21:00;11.37;;;5.90;;
12896;SDS011;6516;35.028;32.372;2023-06-01T10:23:33;12.77;;;6.63;;
12896;SDS011;6516;35.028;32.372;2023-06-01T10:26:04;8.80;;;5.72;;
12896;SDS011;6516;35.028;32.372;2023-06-01T10:28:37;10.13;;;5.50;;
12896;SDS011;6516;35.028;32.372;2023-06-01T10:34:03;12.17;;;5.77;;
12896;SDS011;6516;35.028;32.372;2023-06-01T10:39:44;11.40;;;5.90;;
12896;SDS011;6516;35.028;32.372;2023-06-01T10:48:04;10.93;;;5.40;;
12896;SDS011;6516;35.028;32.372;2023-06-01T10:50:35;10.43;;;6.18;;
12896;SDS011;6516;35.028;32.372;2023-06-01T11:01:41;9.80;;;5.13;;
12896;SDS011;6516;35.028;32.372;2023-06-01T11:04:11;11.15;;;5.55;;
12896;SDS011;6516;35.028;32.372;2023-06-01T11:06:40;11.38;;;5.72;;
12896;SDS011;6516;35.028;32.372;2023-06-01T11:09:09;9.98;;;5.43;;
12896;SDS011;6516;35.028;32.372;2023-06-01T11:14:27;8.43;;;4.80;;
12896;SDS011;6516;35.028;32.372;2023-06-01T11:19:59;12.05;;;5.35;;
12896;SDS011;6516;35.028;32.372;2023-06-01T11:22:35;10.48;;;5.28;;
12896;SDS011;6516;35.028;32.372;2023-06-01T11:25:04;11.70;;;5.30;;
12896;SDS011;6516;35.028;32.372;2023-06-01T11:27:36;9.83;;;5.30;;
12896;SDS011;6516;35.028;32.372;2023-06-01T11:30:06;11.80;;;5.60;;
12896;SDS011;6516;35.028;32.372;2023-06-01T11:32:36;13.05;;;5.57;;
12896;SDS011;6516;35.028;32.372;2023-06-01T11:35:17;10.77;;;5.65;;
12896;SDS011;6516;35.028;32.372;2023-06-01T11:37:46;12.68;;;5.50;;
12896;SDS011;6516;35.028;32.372;2023-06-01T11:40:15;10.27;;;5.37;;
12896;SDS011;6516;35.028;32.372;2023-06-01T11:42:44;12.27;;;5.43;;
12896;SDS011;6516;35.028;32.372;2023-06-01T11:45:14;10.68;;;5.30;;
12896;SDS011;6516;35.028;32.372;2023-06-01T11:47:43;10.73;;;5.45;;
12896;SDS011;6516;35.028;32.372;2023-06-01T11:50:20;10.00;;;5.57;;
12896;SDS011;6516;35.028;32.372;2023-06-01T11:52:49;13.90;;;5.50;;
12896;SDS011;6516;35.028;32.372;2023-06-01T11:55:17;9.70;;;5.20;;
12896;SDS011;6516;35.028;32.372;2023-06-01T11:57:47;11.35;;;5.53;;
12896;SDS011;6516;35.028;32.372;2023-06-01T12:00:15;11.38;;;5.53;;
12896;SDS011;6516;35.028;32.372;2023-06-01T12:02:44;13.32;;;6.20;;
12896;SDS011;6516;35.028;32.372;2023-06-01T12:05:13;9.60;;;5.87;;
12896;SDS011;6516;35.028;32.372;2023-06-01T12:07:44;9.80;;;5.47;;
12896;SDS011;6516;35.028;32.372;2023-06-01T12:10:15;11.70;;;5.80;;
12896;SDS011;6516;35.028;32.372;2023-06-01T12:12:46;11.32;;;5.75;;
12896;SDS011;6516;35.028;32.372;2023-06-01T12:15:15;9.27;;;5.65;;
12896;SDS011;6516;35.028;32.372;2023-06-01T12:17:48;10.23;;;5.40;;
12896;SDS011;6516;35.028;32.372;2023-06-01T12:20:26;10.23;;;5.93;;
12896;SDS011;6516;35.028;32.372;2023-06-01T12:22:55;11.20;;;6.30;;
12896;SDS011;6516;35.028;32.372;2023-06-01T12:25:28;12.80;;;5.75;;
12896;SDS011;6516;35.028;32.372;2023-06-01T12:28:03;10.15;;;5.57;;
12896;SDS011;6516;35.028;32.372;2023-06-01T12:30:32;11.70;;;5.97;;
12896;SDS011;6516;35.028;32.372;2023-06-01T12:33:01;10.13;;;5.57;;
12896;SDS011;6516;35.028;32.372;2023-06-01T12:35:31;13.85;;;6.00;;
12896;SDS011;6516;35.028;32.372;2023-06-01T12:38:02;10.75;;;6.22;;
12896;SDS011;6516;35.028;32.372;2023-06-01T12:40:32;12.07;;;5.80;;
12896;SDS011;6516;35.028;32.372;2023-06-01T12:43:00;14.63;;;5.83;;
12896;SDS011;6516;35.028;32.372;2023-06-01T12:45:36;9.77;;;5.07;;
12896;SDS011;6516;35.028;32.372;2023-06-01T12:48:05;9.68;;;5.97;;
12896;SDS011;6516;35.028;32.372;2023-06-01T12:50:42;9.13;;;5.38;;
12896;SDS011;6516;35.028;32.372;2023-06-01T12:53:10;11.38;;;5.80;;
12896;SDS011;6516;35.028;32.372;2023-06-01T12:55:39;11.53;;;5.67;;
12896;SDS011;6516;35.028;32.372;2023-06-01T12:58:08;10.73;;;5.25;;
12896;SDS011;6516;35.028;32.372;2023-06-01T13:00:36;9.30;;;5.72;;
12896;SDS011;6516;35.028;32.372;2023-06-01T13:03:04;11.38;;;5.25;;
12896;SDS011;6516;35.028;32.372;2023-06-01T13:05:32;12.88;;;5.60;;
12896;SDS011;6516;35.028;32.372;2023-06-01T13:08:00;12.63;;;5.70;;
12896;SDS011;6516;35.028;32.372;2023-06-01T13:10:27;9.82;;;5.53;;
12896;SDS011;6516;35.028;32.372;2023-06-01T13:12:56;10.23;;;5.55;;
12896;SDS011;6516;35.028;32.372;2023-06-01T13:15:25;11.75;;;5.63;;
12896;SDS011;6516;35.028;32.372;2023-06-01T13:17:53;11.43;;;4.93;;
12896;SDS011;6516;35.028;32.372;2023-06-01T13:20:21;9.70;;;5.10;;
12896;SDS011;6516;35.028;32.372;2023-06-01T13:22:49;8.85;;;4.32;;
12896;SDS011;6516;35.028;32.372;2023-06-01T13:25:17;8.85;;;4.93;;
12896;SDS011;6516;35.028;32.372;2023-06-01T13:27:45;10.18;;;4.63;;
12896;SDS011;6516;35.028;32.372;2023-06-01T13:30:13;9.88;;;4.80;;
12896;SDS011;6516;35.028;32.372;2023-06-01T13:32:42;8.00;;;3.73;;
12896;SDS011;6516;35.028;32.372;2023-06-01T13:35:11;8.40;;;4.50;;
12896;SDS011;6516;35.028;32.372;2023-06-01T13:37:38;7.72;;;4.47;;
12896;SDS011;6516;35.028;32.372;2023-06-01T13:40:06;11.88;;;5.15;;
12896;SDS011;6516;35.028;32.372;2023-06-01T13:42:35;8.68;;;4.28;;
12896;SDS011;6516;35.028;32.372;2023-06-01T13:45:03;9.03;;;4.50;;
12896;SDS011;6516;35.028;32.372;2023-06-01T13:47:34;7.68;;;4.15;;
12896;SDS011;6516;35.028;32.372;2023-06-01T13:50:03;9.00;;;4.13;;
12896;SDS011;6516;35.028;32.372;2023-06-01T13:52:31;7.75;;;4.20;;
12896;SDS011;6516;35.028;32.372;2023-06-01T13:54:59;9.02;;;3.90;;
12896;SDS011;6516;35.028;32.372;2023-06-01T13:57:29;8.77;;;4.67;;
12896;SDS011;6516;35.028;32.372;2023-06-01T13:59:57;8.73;;;4.07;;
12896;SDS011;6516;35.028;32.372;2023-06-01T14:02:24;8.90;;;4.55;;
12896;SDS011;6516;35.028;32.372;2023-06-01T14:04:52;10.30;;;4.63;;
12896;SDS011;6516;35.028;32.372;2023-06-01T14:07:21;9.43;;;4.47;;
12896;SDS011;6516;35.028;32.372;2023-06-01T14:09:50;8.30;;;4.73;;
12896;SDS011;6516;35.028;32.372;2023-06-01T14:12:17;9.15;;;5.18;;
12896;SDS011;6516;35.028;32.372;2023-06-01T14:14:45;9.48;;;4.30;;
12896;SDS011;6516;35.028;32.372;2023-06-01T14:17:13;8.05;;;4.82;;
12896;SDS011;6516;35.028;32.372;2023-06-01T14:19:41;9.93;;;5.07;;
12896;SDS011;6516;35.028;32.372;2023-06-01T14:22:09;8.50;;;4.80;;
12896;SDS011;6516;35.028;32.372;2023-06-01T14:24:38;7.72;;;4.68;;
12896;SDS011;6516;35.028;32.372;2023-06-01T14:27:06;10.43;;;4.82;;
12896;SDS011;6516;35.028;32.372;2023-06-01T14:29:34;10.43;;;5.00;;
12896;SDS011;6516;35.028;32.372;2023-06-01T14:32:01;8.45;;;4.80;;
12896;SDS011;6516;35.028;32.372;2023-06-01T14:34:29;7.73;;;4.30;;
12896;SDS011;6516;35.028;32.372;2023-06-01T14:36:57;8.27;;;4.40;;
12896;SDS011;6516;35.028;32.372;2023-06-01T14:39:25;10.10;;;4.70;;
12896;SDS011;6516;35.028;32.372;2023-06-01T14:41:55;10.23;;;4.80;;
12896;SDS011;6516;35.028;32.372;2023-06-01T14:44:22;9.18;;;5.00;;
12896;SDS011;6516;35.028;32.372;2023-06-01T14:46:50;9.50;;;5.00;;
12896;SDS011;6516;35.028;32.372;2023-06-01T14:49:18;10.90;;;5.30;;
12896;SDS011;6516;35.028;32.372;2023-06-01T14:51:45;10.57;;;5.40;;
12896;SDS011;6516;35.028;32.372;2023-06-01T14:54:13;9.90;;;4.75;;
12896;SDS011;6516;35.028;32.372;2023-06-01T14:56:41;10.02;;;4.78;;
12896;SDS011;6516;35.028;32.372;2023-06-01T14:59:11;10.80;;;4.80;;
12896;SDS011;6516;35.028;32.372;2023-06-01T15:01:38;10.77;;;5.00;;
12896;SDS011;6516;35.028;32.372;2023-06-01T15:04:07;9.80;;;4.80;;
12896;SDS011;6516;35.028;32.372;2023-06-01T15:06:34;9.45;;;4.88;;
12896;SDS011;6516;35.028;32.372;2023-06-01T15:09:02;9.70;;;4.63;;
12896;SDS011;6516;35.028;32.372;2023-06-01T15:11:30;10.20;;;4.67;;
12896;SDS011;6516;35.028;32.372;2023-06-01T15:13:58;9.32;;;4.63;;
12896;SDS011;6516;35.028;32.372;2023-06-01T15:16:27;8.77;;;4.82;;